Terminal Aerodrome Forecast
Issued by NWS Charleston, SC

Home | Current Version | Previous Version | Text Only | Print | Product List | Glossary On
Versions: 1 2 3 4 5 6 7 8 9 10 11 12
000
FTUS42 KCHS 280522
TAFSAV
TAF
KSAV 280522Z 2806/2906 18005KT P6SM BKN090
     FM281300 24008KT P6SM FEW250
     FM281700 24012G20KT P6SM SCT050
     FM282200 24009KT P6SM SCT200
     FM290000 21005KT P6SM SCT200=

USA.gov is the U.S. government's official web portal to all federal, state and local government web resources and services.